Time;durP1;ratioP1;P1;durP2;ratioP2;P2;SDS_P1;SDS_P2;PMS_P1;PMS_P2;Temp;Humidity;BMP_temperature;BMP_pressure;BME280_temperature;BME280_humidity;BME280_pressure;Samples;Min_cycle;Max_cycle;Signal;HPM_P1;HPM_P2
2023/07/11 00:00:07;;;;;;;6.95;1.95;;;20.80;99.90;;;;;;5047705;28;20520;-71
2023/07/11 00:02:33;;;;;;;4.97;1.83;;;20.80;99.90;;;;;;5056158;28;20056;-69
2023/07/11 00:04:59;;;;;;;5.18;2.13;;;20.80;99.90;;;;;;5055593;28;20403;-69
2023/07/11 00:07:26;;;;;;;4.75;2.00;;;20.80;99.90;;;;;;5059306;28;20036;-70
2023/07/11 00:09:51;;;;;;;5.53;1.80;;;20.80;99.90;;;;;;5043302;28;20068;-70
2023/07/11 00:12:18;;;;;;;8.00;1.80;;;20.70;99.90;;;;;;5056850;28;20558;-69
2023/07/11 00:14:44;;;;;;;5.43;1.87;;;20.70;99.90;;;;;;5054468;28;20102;-70
2023/07/11 00:17:10;;;;;;;6.40;2.10;;;20.70;99.90;;;;;;5056472;28;20314;-70
2023/07/11 00:19:50;;;;;;;8.75;2.25;;;20.60;99.90;;;;;;5054637;28;20046;-69
2023/07/11 00:22:16;;;;;;;4.13;1.95;;;20.60;99.90;;;;;;5048113;28;20411;-69
2023/07/11 00:24:42;;;;;;;7.63;2.08;;;20.50;99.90;;;;;;5047091;28;20051;-69
2023/07/11 00:27:10;;;;;;;6.30;1.95;;;20.50;99.90;;;;;;5053871;28;20044;-69
2023/07/11 00:29:36;;;;;;;5.30;2.00;;;20.50;99.90;;;;;;5052566;28;20040;-70
2023/07/11 00:32:03;;;;;;;6.80;2.25;;;20.50;99.90;;;;;;5053060;28;20640;-70
2023/07/11 00:34:28;;;;;;;5.50;1.83;;;20.50;99.90;;;;;;5052294;28;20418;-69
2023/07/11 00:36:54;;;;;;;7.00;2.20;;;20.40;99.90;;;;;;5055848;28;20053;-71
2023/07/11 00:39:20;;;;;;;5.60;1.88;;;20.40;99.90;;;;;;5054765;28;20048;-70
2023/07/11 00:41:46;;;;;;;4.65;2.15;;;20.30;99.90;;;;;;5056423;28;20036;-70
2023/07/11 00:44:16;;;;;;;5.72;1.95;;;20.40;99.90;;;;;;5055548;28;20040;-69
2023/07/11 00:46:42;;;;;;;6.50;2.25;;;20.30;99.90;;;;;;5052811;28;21166;-68
2023/07/11 00:49:15;;;;;;;3.90;2.03;;;20.30;99.90;;;;;;5053509;28;20045;-70
2023/07/11 00:51:48;;;;;;;6.65;1.92;;;20.30;99.90;;;;;;5056587;28;20059;-69
2023/07/11 00:54:17;;;;;;;6.95;2.10;;;20.30;99.90;;;;;;5052640;28;20059;-68
2023/07/11 00:56:45;;;;;;;6.72;2.15;;;20.30;99.90;;;;;;5050381;28;20055;-70
2023/07/11 00:59:14;;;;;;;4.40;1.80;;;20.20;99.90;;;;;;5054689;28;20123;-70
2023/07/11 01:01:40;;;;;;;6.47;1.98;;;20.30;99.90;;;;;;5051423;28;20518;-69
2023/07/11 01:04:06;;;;;;;5.10;1.98;;;20.20;99.90;;;;;;5048514;28;20123;-70
2023/07/11 01:06:32;;;;;;;5.28;2.58;;;20.20;99.90;;;;;;5049190;28;20029;-69
2023/07/11 01:09:00;;;;;;;7.30;2.37;;;20.20;99.90;;;;;;5033468;28;20044;-69
2023/07/11 01:11:28;;;;;;;5.35;2.30;;;20.20;99.90;;;;;;5050874;28;20075;-69
2023/07/11 01:13:54;;;;;;;6.57;2.22;;;20.10;99.90;;;;;;5054979;28;20044;-69
2023/07/11 01:16:20;;;;;;;6.63;2.38;;;20.10;99.90;;;;;;5051533;28;20052;-69
2023/07/11 01:18:46;;;;;;;5.95;2.60;;;20.10;99.90;;;;;;5052107;28;20044;-69
2023/07/11 01:21:21;;;;;;;5.72;2.58;;;20.10;99.90;;;;;;5049234;28;20056;-69
2023/07/11 01:23:47;;;;;;;5.57;2.08;;;20.10;99.90;;;;;;5051838;28;20169;-69
2023/07/11 01:26:13;;;;;;;5.68;2.78;;;20.10;99.90;;;;;;5050216;28;20053;-69
2023/07/11 01:28:39;;;;;;;5.00;2.50;;;20.10;99.90;;;;;;5049339;28;20051;-69
2023/07/11 01:31:06;;;;;;;7.90;2.40;;;20.10;99.90;;;;;;5051857;28;20052;-70
2023/07/11 01:33:32;;;;;;;4.65;2.28;;;20.10;99.90;;;;;;5056913;28;20049;-69
2023/07/11 01:35:58;;;;;;;7.13;2.40;;;20.00;99.90;;;;;;5055012;28;20052;-68
2023/07/11 01:38:24;;;;;;;7.18;2.80;;;20.00;99.90;;;;;;5053756;28;22182;-69
2023/07/11 01:40:50;;;;;;;6.05;2.53;;;20.00;99.90;;;;;;5043728;28;20044;-68
2023/07/11 01:43:18;;;;;;;6.77;2.67;;;20.00;99.90;;;;;;5049336;28;20555;-69
2023/07/11 01:45:44;;;;;;;6.15;2.90;;;20.00;99.90;;;;;;5027869;28;20080;-69
2023/07/11 01:48:09;;;;;;;8.77;2.67;;;20.00;99.90;;;;;;5033634;28;20463;-68
2023/07/11 01:50:35;;;;;;;5.80;2.60;;;19.90;99.90;;;;;;5054604;28;20081;-69
2023/07/11 01:53:01;;;;;;;6.78;2.70;;;19.90;99.90;;;;;;5053530;28;20487;-69
2023/07/11 01:55:27;;;;;;;6.28;3.13;;;19.90;99.90;;;;;;5052303;28;20039;-69
2023/07/11 01:57:53;;;;;;;7.97;2.95;;;19.90;99.90;;;;;;5050708;28;20162;-69
2023/07/11 02:00:18;;;;;;;6.40;2.92;;;19.80;99.90;;;;;;5028329;28;20053;-68
2023/07/11 02:02:44;;;;;;;7.78;3.25;;;19.90;99.90;;;;;;5048801;28;20070;-69
2023/07/11 02:05:09;;;;;;;7.65;3.15;;;19.90;99.90;;;;;;5050218;28;20139;-69
2023/07/11 02:07:35;;;;;;;6.72;3.60;;;19.90;99.90;;;;;;5050491;28;20135;-69
2023/07/11 02:10:01;;;;;;;7.57;3.30;;;19.80;99.90;;;;;;5022654;28;20139;-69
2023/07/11 02:12:27;;;;;;;8.98;3.50;;;19.80;99.90;;;;;;5050791;28;20155;-69
2023/07/11 02:14:52;;;;;;;8.48;3.95;;;19.80;99.90;;;;;;5046524;28;20085;-69
2023/07/11 02:17:18;;;;;;;8.07;3.50;;;19.80;99.90;;;;;;5043509;28;20078;-69
2023/07/11 02:19:46;;;;;;;8.88;3.38;;;19.70;99.90;;;;;;5023987;28;20048;-68
2023/07/11 02:22:12;;;;;;;6.97;3.50;;;19.70;99.90;;;;;;5050211;28;20040;-70
2023/07/11 02:24:41;;;;;;;6.20;3.58;;;19.70;99.90;;;;;;5035280;28;20044;-69
2023/07/11 02:27:07;;;;;;;8.98;4.07;;;19.70;99.90;;;;;;5049885;28;20052;-69
2023/07/11 02:29:33;;;;;;;7.10;3.45;;;19.70;99.90;;;;;;5043931;28;20093;-70
2023/07/11 02:31:58;;;;;;;12.18;4.22;;;19.70;99.90;;;;;;5032671;28;20060;-69
2023/07/11 02:34:24;;;;;;;8.82;4.05;;;19.70;99.90;;;;;;5042503;28;20037;-67
2023/07/11 02:36:50;;;;;;;7.80;4.00;;;19.70;99.90;;;;;;5049310;28;20055;-70
2023/07/11 02:39:17;;;;;;;9.43;4.72;;;19.80;99.90;;;;;;5054659;28;20135;-71
2023/07/11 02:41:42;;;;;;;7.50;4.07;;;19.70;99.90;;;;;;5048936;28;20062;-68
2023/07/11 02:44:08;;;;;;;8.40;4.00;;;19.70;99.90;;;;;;5031833;28;20052;-69
2023/07/11 02:46:35;;;;;;;9.32;3.83;;;19.70;99.90;;;;;;5039480;28;20048;-68
2023/07/11 02:49:00;;;;;;;10.07;4.50;;;19.70;99.90;;;;;;5057868;28;20103;-70
2023/07/11 02:51:27;;;;;;;8.60;4.10;;;19.70;99.90;;;;;;5053398;28;20167;-69
2023/07/11 02:53:52;;;;;;;7.28;3.80;;;19.70;99.90;;;;;;5055166;28;20040;-70
2023/07/11 02:56:19;;;;;;;9.77;4.32;;;19.70;99.90;;;;;;5047863;28;20518;-69
2023/07/11 02:58:46;;;;;;;9.30;4.10;;;19.60;99.90;;;;;;5052757;28;20052;-71
2023/07/11 03:01:13;;;;;;;7.10;3.90;;;19.60;99.90;;;;;;5052292;28;20432;-68
2023/07/11 03:03:39;;;;;;;8.63;4.20;;;19.60;99.90;;;;;;5044922;28;20132;-71
2023/07/11 03:06:04;;;;;;;7.53;4.00;;;19.60;99.90;;;;;;5037480;28;20067;-70
2023/07/11 03:08:31;;;;;;;6.78;4.15;;;19.60;99.90;;;;;;5047935;28;20117;-70
2023/07/11 03:11:01;;;;;;;8.65;4.28;;;19.60;99.90;;;;;;5049142;28;20486;-70
2023/07/11 03:13:27;;;;;;;8.18;4.15;;;19.60;99.90;;;;;;5053475;28;20049;-69
2023/07/11 03:15:53;;;;;;;9.07;4.25;;;19.60;99.90;;;;;;5051760;28;20055;-69
2023/07/11 03:18:19;;;;;;;10.45;4.07;;;19.60;99.90;;;;;;5050134;28;20124;-70
2023/07/11 03:20:44;;;;;;;8.18;4.25;;;19.50;99.90;;;;;;5047418;28;20047;-69
2023/07/11 03:23:13;;;;;;;9.48;4.57;;;19.50;99.90;;;;;;5030046;28;20064;-69
2023/07/11 03:25:40;;;;;;;9.00;4.28;;;19.40;99.90;;;;;;5052249;28;20044;-69
2023/07/11 03:28:06;;;;;;;8.15;4.47;;;19.40;99.90;;;;;;5023632;28;20037;-70
2023/07/11 03:30:35;;;;;;;8.65;4.40;;;19.40;99.90;;;;;;5053750;28;20051;-69
2023/07/11 03:33:01;;;;;;;7.25;4.30;;;19.40;99.90;;;;;;5047752;28;20130;-69
2023/07/11 03:35:27;;;;;;;8.97;4.47;;;19.40;99.90;;;;;;5054096;28;20041;-69
2023/07/11 03:37:53;;;;;;;10.43;4.53;;;19.40;99.90;;;;;;5050936;28;20876;-69
2023/07/11 03:40:18;;;;;;;7.50;3.90;;;19.40;99.90;;;;;;5047012;28;20048;-69
2023/07/11 03:42:44;;;;;;;8.32;4.05;;;19.40;99.90;;;;;;5051656;28;20086;-70
2023/07/11 03:45:10;;;;;;;9.20;4.47;;;19.40;99.90;;;;;;5037466;28;20047;-69
2023/07/11 03:47:35;;;;;;;11.13;4.47;;;19.40;99.90;;;;;;5035065;28;20040;-68
2023/07/11 03:50:02;;;;;;;10.15;4.35;;;19.40;99.90;;;;;;5054770;28;20076;-68
2023/07/11 03:52:27;;;;;;;6.97;3.78;;;19.40;99.90;;;;;;5054981;28;20044;-68
2023/07/11 03:54:53;;;;;;;7.60;4.22;;;19.40;99.90;;;;;;5048087;28;20052;-69
2023/07/11 03:57:19;;;;;;;8.07;3.97;;;19.40;99.90;;;;;;5046668;28;20831;-69
2023/07/11 03:59:45;;;;;;;6.45;3.55;;;19.40;99.90;;;;;;5057938;28;20113;-69
2023/07/11 04:02:11;;;;;;;8.45;4.13;;;19.40;99.90;;;;;;5056592;28;20040;-69
2023/07/11 04:04:36;;;;;;;7.00;4.03;;;19.50;99.90;;;;;;5044185;28;20048;-69
2023/07/11 04:07:03;;;;;;;9.80;4.30;;;19.50;99.90;;;;;;5048949;28;20053;-68
2023/07/11 04:09:29;;;;;;;6.95;3.90;;;19.50;99.90;;;;;;5058295;28;20131;-69
2023/07/11 04:11:54;;;;;;;7.38;4.03;;;19.50;99.90;;;;;;5057038;28;20179;-68
2023/07/11 04:14:20;;;;;;;8.18;4.32;;;19.60;99.90;;;;;;5047964;28;20055;-69
2023/07/11 04:16:46;;;;;;;7.40;4.05;;;19.60;99.90;;;;;;5052745;28;20037;-68
2023/07/11 04:19:11;;;;;;;8.73;4.60;;;19.60;99.90;;;;;;5052659;28;20480;-69
2023/07/11 04:21:37;;;;;;;8.70;3.63;;;19.70;99.90;;;;;;5048731;28;20037;-71
2023/07/11 04:24:03;;;;;;;7.88;3.95;;;19.70;99.90;;;;;;5050513;28;20122;-70
2023/07/11 04:26:29;;;;;;;11.68;4.50;;;19.70;99.90;;;;;;5048265;28;21198;-69
2023/07/11 04:28:55;;;;;;;10.88;4.05;;;19.70;99.90;;;;;;5047608;28;20047;-69
2023/07/11 04:31:21;;;;;;;9.13;4.13;;;19.70;99.90;;;;;;5048282;28;20064;-69
2023/07/11 04:33:47;;;;;;;9.48;4.30;;;19.70;99.90;;;;;;5054337;28;20051;-70
2023/07/11 04:36:15;;;;;;;7.15;3.90;;;19.70;99.90;;;;;;5041410;28;20041;-68
2023/07/11 04:38:40;;;;;;;10.07;4.57;;;19.80;99.90;;;;;;5051717;28;20064;-70
2023/07/11 04:41:07;;;;;;;7.85;4.10;;;19.80;99.90;;;;;;5049569;28;20047;-68
2023/07/11 04:43:33;;;;;;;8.45;3.90;;;19.80;99.90;;;;;;5035276;28;20102;-69
2023/07/11 04:46:01;;;;;;;10.27;4.13;;;19.90;99.90;;;;;;5052917;28;20556;-69
2023/07/11 04:48:26;;;;;;;;;;;19.90;99.90;;;;;;5051300;28;20044;-70
2023/07/11 04:51:02;;;;;;;6.68;3.78;;;19.90;99.90;;;;;;5050003;28;19931;-69
2023/07/11 04:53:28;;;;;;;8.80;4.27;;;19.90;99.90;;;;;;5046483;28;20048;-69
2023/07/11 04:55:55;;;;;;;6.18;3.95;;;19.90;99.90;;;;;;5055339;28;20294;-69
2023/07/11 04:58:21;;;;;;;6.40;3.70;;;20.00;99.90;;;;;;5054605;28;20056;-70
2023/07/11 05:00:47;;;;;;;7.05;4.18;;;20.00;99.90;;;;;;5050705;28;20063;-69
2023/07/11 05:03:12;;;;;;;9.32;4.00;;;20.00;99.90;;;;;;5053040;28;20086;-68
2023/07/11 05:05:38;;;;;;;8.70;4.50;;;20.00;99.90;;;;;;5051193;28;20116;-69
2023/07/11 05:08:04;;;;;;;7.25;3.97;;;20.10;99.90;;;;;;5047377;28;20135;-71
2023/07/11 05:10:29;;;;;;;9.73;4.68;;;20.10;99.90;;;;;;5049204;28;20033;-68
2023/07/11 05:12:55;;;;;;;8.68;4.40;;;20.10;99.90;;;;;;5047371;28;20048;-69
2023/07/11 05:15:21;;;;;;;7.15;3.70;;;20.10;99.90;;;;;;5028983;28;20076;-69
2023/07/11 05:17:46;;;;;;;10.13;4.40;;;20.10;99.90;;;;;;5045828;28;20156;-69
2023/07/11 05:20:12;;;;;;;6.72;3.90;;;20.10;99.90;;;;;;5051142;28;20083;-70
2023/07/11 05:22:37;;;;;;;8.15;4.03;;;20.10;99.90;;;;;;5034200;28;20126;-69
2023/07/11 05:25:04;;;;;;;8.25;3.83;;;20.10;99.90;;;;;;5029957;28;20068;-69
2023/07/11 05:27:30;;;;;;;9.27;4.32;;;20.20;99.90;;;;;;5050186;28;20487;-69
2023/07/11 05:29:56;;;;;;;8.38;4.13;;;20.30;99.90;;;;;;5054108;28;20050;-70
2023/07/11 05:32:22;;;;;;;7.13;4.05;;;20.30;99.90;;;;;;5041347;28;20053;-69
2023/07/11 05:34:48;;;;;;;9.82;4.40;;;20.40;99.90;;;;;;5048454;28;20403;-69
2023/07/11 05:37:14;;;;;;;8.82;3.83;;;20.50;99.90;;;;;;5042345;28;20071;-70
2023/07/11 05:39:39;;;;;;;6.25;3.63;;;20.60;99.90;;;;;;5036329;28;20049;-68
2023/07/11 05:42:05;;;;;;;7.43;4.05;;;20.70;99.90;;;;;;5044718;28;20168;-69
2023/07/11 05:44:31;;;;;;;7.15;3.83;;;20.80;99.90;;;;;;5046792;28;20052;-67
2023/07/11 05:46:57;;;;;;;7.28;3.95;;;20.90;99.90;;;;;;5048938;28;20056;-69
2023/07/11 05:49:23;;;;;;;7.53;3.80;;;21.00;99.90;;;;;;5048031;28;22069;-67
2023/07/11 05:51:49;;;;;;;9.05;3.70;;;21.00;99.90;;;;;;5050488;28;20583;-68
2023/07/11 05:54:15;;;;;;;9.40;3.85;;;21.10;99.90;;;;;;5017961;28;20040;-68
2023/07/11 05:56:41;;;;;;;7.97;4.05;;;21.20;99.90;;;;;;5038889;28;20056;-67
2023/07/11 05:59:07;;;;;;;9.07;4.10;;;21.20;99.90;;;;;;5033720;28;20064;-68
2023/07/11 06:01:33;;;;;;;6.82;3.47;;;21.20;99.90;;;;;;5019589;28;21084;-69
2023/07/11 06:04:13;;;;;;;7.82;3.58;;;21.20;99.90;;;;;;5026170;28;20040;-67
2023/07/11 06:06:42;;;;;;;6.10;3.65;;;21.30;99.90;;;;;;5024165;28;20048;-69
2023/07/11 06:09:20;;;;;;;7.75;3.70;;;21.40;99.90;;;;;;5022130;28;20416;-68
2023/07/11 06:11:47;;;;;;;8.82;3.47;;;21.40;99.90;;;;;;5020257;28;20045;-67
2023/07/11 06:14:14;;;;;;;8.15;3.28;;;21.40;99.90;;;;;;5025461;28;20055;-69
2023/07/11 06:16:41;;;;;;;8.77;3.75;;;21.50;99.90;;;;;;5019826;28;20072;-68
2023/07/11 06:19:07;;;;;;;;;;;21.50;99.90;;;;;;5022807;28;20148;-67
2023/07/11 06:21:33;;;;;;;10.13;4.23;;;21.60;99.90;;;;;;5022074;28;20364;-68
2023/07/11 06:23:58;;;;;;;10.40;4.10;;;21.60;99.90;;;;;;5024524;28;20106;-68
2023/07/11 06:26:24;;;;;;;9.65;4.28;;;21.70;99.90;;;;;;5025352;28;20065;-68
2023/07/11 06:28:50;;;;;;;9.07;4.22;;;21.70;99.90;;;;;;5025883;28;20102;-69
2023/07/11 06:31:16;;;;;;;8.40;3.85;;;21.80;99.90;;;;;;5027884;28;20052;-68
2023/07/11 06:33:45;;;;;;;9.57;4.30;;;21.90;99.90;;;;;;5028706;28;20881;-68
2023/07/11 06:36:12;;;;;;;11.60;5.45;;;22.00;99.90;;;;;;5028920;28;20523;-67
2023/07/11 06:38:37;;;;;;;12.55;5.50;;;22.10;99.90;;;;;;5019051;28;20770;-68
2023/07/11 06:41:03;;;;;;;8.45;5.00;;;22.10;99.90;;;;;;5023040;28;20132;-69
2023/07/11 06:43:29;;;;;;;11.90;8.38;;;22.10;99.90;;;;;;5009434;28;20090;-67
2023/07/11 06:45:58;;;;;;;11.45;6.10;;;22.20;99.90;;;;;;5025522;28;20504;-68
2023/07/11 06:48:26;;;;;;;8.88;4.68;;;22.20;99.90;;;;;;5022764;28;20123;-68
2023/07/11 06:50:55;;;;;;;10.18;5.60;;;22.20;99.90;;;;;;5032387;28;20048;-70
2023/07/11 06:53:22;;;;;;;11.32;5.90;;;22.30;99.90;;;;;;5024194;28;20141;-71
2023/07/11 06:55:50;;;;;;;13.70;6.47;;;22.30;99.90;;;;;;5024570;28;20094;-71
2023/07/11 06:58:17;;;;;;;10.38;5.93;;;22.40;99.90;;;;;;5007631;28;20072;-69
2023/07/11 07:00:43;;;;;;;11.10;6.38;;;22.40;99.90;;;;;;5034943;28;22184;-70
2023/07/11 07:03:13;;;;;;;9.75;6.38;;;22.50;99.90;;;;;;5049693;28;20127;-69
2023/07/11 07:05:52;;;;;;;9.25;5.60;;;22.60;99.90;;;;;;5031721;28;20083;-69
2023/07/11 07:08:19;;;;;;;9.60;5.35;;;22.70;99.90;;;;;;5050603;28;20074;-71
2023/07/11 07:10:47;;;;;;;9.25;5.00;;;22.70;99.90;;;;;;5058025;28;20051;-72
2023/07/11 07:13:13;;;;;;;8.20;5.25;;;22.80;99.90;;;;;;5058132;28;20048;-72
2023/07/11 07:15:38;;;;;;;10.40;5.25;;;22.90;99.90;;;;;;5038411;28;20036;-71
2023/07/11 07:18:04;;;;;;;7.82;4.40;;;23.00;99.90;;;;;;5053261;28;20086;-72
2023/07/11 07:20:30;;;;;;;9.02;4.72;;;23.10;99.90;;;;;;5054977;28;20411;-70
2023/07/11 07:22:55;;;;;;;7.22;4.07;;;23.30;99.90;;;;;;5050518;28;20052;-69
2023/07/11 07:25:21;;;;;;;10.68;4.10;;;23.40;99.90;;;;;;5052394;28;21001;-68
2023/07/11 07:27:47;;;;;;;9.38;4.10;;;23.60;99.90;;;;;;5054462;28;20105;-68
2023/07/11 07:30:12;;;;;;;8.80;4.20;;;23.70;99.90;;;;;;5058490;28;20135;-69
2023/07/11 07:32:38;;;;;;;8.57;4.18;;;23.80;99.90;;;;;;5056907;28;20095;-70
2023/07/11 07:35:04;;;;;;;8.00;4.47;;;23.80;99.90;;;;;;5060519;28;20795;-70
2023/07/11 07:37:30;;;;;;;8.17;3.83;;;23.90;99.90;;;;;;5043855;28;20055;-69
2023/07/11 07:39:56;;;;;;;10.25;4.40;;;23.90;99.90;;;;;;5051886;28;20044;-69
2023/07/11 07:42:22;;;;;;;7.40;3.92;;;24.00;99.90;;;;;;5056230;28;20384;-68
2023/07/11 07:44:48;;;;;;;8.10;4.18;;;24.10;99.90;;;;;;5047174;28;20056;-71
2023/07/11 07:47:13;;;;;;;11.82;3.97;;;24.20;99.90;;;;;;5052400;28;20044;-70
2023/07/11 07:49:39;;;;;;;7.50;4.35;;;24.20;99.90;;;;;;5054683;28;20048;-71
2023/07/11 07:52:05;;;;;;;8.35;3.92;;;24.30;99.90;;;;;;5039483;28;20043;-73
2023/07/11 07:54:31;;;;;;;8.45;4.13;;;24.30;99.90;;;;;;5034766;28;20044;-71
2023/07/11 07:56:56;;;;;;;7.80;3.53;;;24.40;99.90;;;;;;5045914;28;20495;-71
2023/07/11 07:59:22;;;;;;;10.48;4.20;;;24.50;99.90;;;;;;5056402;28;20719;-71
2023/07/11 08:01:48;;;;;;;6.07;3.72;;;24.70;99.90;;;;;;5057317;28;20508;-71
2023/07/11 08:04:13;;;;;;;7.13;4.05;;;24.80;99.90;;;;;;5057213;28;20110;-70
2023/07/11 08:06:39;;;;;;;7.10;3.63;;;24.90;99.90;;;;;;5037810;28;20106;-72
2023/07/11 08:09:05;;;;;;;7.28;4.20;;;25.00;99.90;;;;;;5055237;28;20120;-72
2023/07/11 08:11:30;;;;;;;6.80;3.65;;;25.10;99.90;;;;;;5038131;28;20484;-69
2023/07/11 08:13:56;;;;;;;8.77;4.30;;;25.20;99.90;;;;;;5027890;28;20478;-70
2023/07/11 08:16:22;;;;;;;9.85;3.75;;;25.20;99.90;;;;;;5047892;28;20049;-71
2023/07/11 08:18:47;;;;;;;7.05;3.67;;;25.30;99.90;;;;;;5035582;28;20475;-71
2023/07/11 08:21:13;;;;;;;8.13;3.80;;;25.40;99.90;;;;;;5038116;28;21723;-72
2023/07/11 08:23:39;;;;;;;6.82;3.58;;;25.50;99.90;;;;;;5053168;28;20044;-72
2023/07/11 08:26:04;;;;;;;8.77;4.10;;;25.50;99.90;;;;;;5050583;28;20049;-70
2023/07/11 08:28:30;;;;;;;6.70;3.30;;;25.60;99.90;;;;;;5053653;28;20047;-70
2023/07/11 08:30:55;;;;;;;11.82;3.83;;;25.70;99.90;;;;;;5031958;28;20037;-69
2023/07/11 08:33:21;;;;;;;8.07;4.13;;;25.80;99.90;;;;;;5025378;28;20060;-71
2023/07/11 08:35:47;;;;;;;8.25;3.90;;;25.80;99.90;;;;;;5056697;28;20384;-69
2023/07/11 08:38:12;;;;;;;6.77;3.83;;;25.80;99.90;;;;;;5053919;28;20048;-71
2023/07/11 08:40:43;;;;;;;9.07;3.75;;;25.90;99.90;;;;;;5052260;28;20041;-70
2023/07/11 08:43:15;;;;;;;7.88;3.33;;;26.00;99.90;;;;;;5027963;28;20055;-72
2023/07/11 08:46:05;;;;;;;10.82;4.10;;;26.10;99.90;;;;;;5056553;28;20037;-73
2023/07/11 08:48:56;;;;;;;7.45;3.42;;;26.20;99.90;;;;;;5036749;28;20575;-72
2023/07/11 08:51:37;;;;;;;5.22;3.45;;;26.20;99.90;;;;;;5048052;28;20045;-71
2023/07/11 08:54:12;;;;;;;6.60;3.40;;;26.30;99.90;;;;;;5056010;28;20087;-71
2023/07/11 08:56:41;;;;;;;6.40;3.10;;;26.40;99.90;;;;;;5056148;28;20052;-72
2023/07/11 08:59:14;;;;;;;5.35;2.80;;;26.50;99.70;;;;;;5056131;28;20060;-71
2023/07/11 09:02:10;;;;;;;6.20;2.92;;;26.60;99.20;;;;;;5055067;28;20056;-73
2023/07/11 09:04:39;;;;;;;;;;;26.60;99.00;;;;;;5016593;28;21145;-70
2023/07/11 09:07:16;;;;;;;9.45;3.58;;;26.80;99.30;;;;;;5058394;28;19973;-73
2023/07/11 09:09:42;;;;;;;9.32;3.38;;;26.90;98.90;;;;;;5060576;28;20059;-71
2023/07/11 09:12:29;;;;;;;10.03;3.27;;;27.00;98.90;;;;;;5059708;28;20082;-70
2023/07/11 09:15:12;;;;;;;6.88;3.45;;;27.00;98.50;;;;;;5062008;28;20356;-71
2023/07/11 09:18:06;;;;;;;7.47;3.55;;;27.10;98.60;;;;;;5059681;28;20048;-71
2023/07/11 09:20:57;;;;;;;7.93;3.20;;;27.20;99.00;;;;;;5049224;28;20179;-69
2023/07/11 09:23:22;;;;;;;5.20;2.85;;;27.20;98.30;;;;;;5059028;28;20369;-69
2023/07/11 09:25:49;;;;;;;10.77;3.87;;;27.30;98.30;;;;;;5056742;28;20051;-70
2023/07/11 09:28:20;;;;;;;7.18;3.47;;;27.40;98.40;;;;;;5059699;28;20048;-71
2023/07/11 09:30:59;;;;;;;8.43;3.20;;;27.50;98.10;;;;;;5042241;28;20052;-69
2023/07/11 09:33:39;;;;;;;7.75;3.08;;;27.50;97.60;;;;;;5044183;28;20051;-70
2023/07/11 09:36:24;;;;;;;6.85;3.40;;;27.60;97.40;;;;;;5052754;28;20076;-72
2023/07/11 09:39:13;;;;;;;7.35;3.17;;;27.70;97.00;;;;;;5050707;28;20041;-70
2023/07/11 09:41:48;;;;;;;7.18;3.15;;;27.70;97.20;;;;;;5026112;28;20775;-71
2023/07/11 09:44:13;;;;;;;5.68;2.97;;;27.80;97.30;;;;;;5052971;28;20052;-70
2023/07/11 09:46:39;;;;;;;8.70;3.17;;;27.90;96.20;;;;;;5053743;28;20049;-69
2023/07/11 09:49:09;;;;;;;6.73;3.10;;;27.80;95.60;;;;;;5053632;28;20051;-68
2023/07/11 09:51:44;;;;;;;8.40;3.33;;;27.80;94.90;;;;;;5055334;28;20048;-71
2023/07/11 09:54:25;;;;;;;7.35;3.30;;;27.90;95.20;;;;;;5030335;28;20060;-71
2023/07/11 09:56:51;;;;;;;8.30;3.40;;;27.90;94.90;;;;;;5037340;28;20404;-70
2023/07/11 09:59:19;;;;;;;8.30;3.35;;;28.00;95.00;;;;;;5049085;28;20076;-69
2023/07/11 10:01:51;;;;;;;7.50;3.28;;;28.10;94.90;;;;;;5054805;28;20066;-70
2023/07/11 10:04:21;;;;;;;7.30;3.20;;;28.10;93.80;;;;;;5055892;28;20044;-70
2023/07/11 10:06:59;;;;;;;6.53;3.30;;;28.20;94.20;;;;;;5051992;28;20059;-71
2023/07/11 10:09:31;;;;;;;7.65;3.22;;;28.20;94.60;;;;;;5033102;28;20060;-69
2023/07/11 10:12:17;;;;;;;8.68;3.45;;;28.20;94.20;;;;;;5037108;28;20045;-71
2023/07/11 10:14:45;;;;;;;7.15;2.92;;;28.20;94.20;;;;;;5040484;28;20063;-69
2023/07/11 10:17:32;;;;;;;7.75;3.20;;;28.30;92.90;;;;;;5051860;28;20102;-71
2023/07/11 10:20:01;;;;;;;7.05;3.42;;;28.20;92.70;;;;;;5059266;28;20075;-69
2023/07/11 10:22:29;;;;;;;7.45;3.28;;;28.30;93.30;;;;;;5034698;28;20171;-70
2023/07/11 10:25:19;;;;;;;7.88;3.40;;;28.40;93.20;;;;;;5055531;28;20048;-69
2023/07/11 10:28:22;;;;;;;8.85;3.20;;;28.50;92.30;;;;;;5054869;28;20510;-69
2023/07/11 10:30:50;;;;;;;9.57;3.20;;;28.50;93.20;;;;;;5050669;28;20048;-68
2023/07/11 10:33:24;;;;;;;5.13;2.90;;;28.60;92.40;;;;;;5052307;28;20051;-68
2023/07/11 10:35:57;;;;;;;9.25;2.70;;;28.60;91.30;;;;;;5055555;28;20051;-68
2023/07/11 10:38:28;;;;;;;6.93;3.00;;;28.60;90.50;;;;;;5057906;28;20049;-70
2023/07/11 10:40:58;;;;;;;5.80;3.00;;;28.60;90.50;;;;;;5030659;28;20045;-69
2023/07/11 10:43:33;;;;;;;6.55;3.00;;;28.70;91.00;;;;;;5041759;28;21561;-71
2023/07/11 10:46:12;;;;;;;7.13;2.80;;;28.80;90.80;;;;;;5033108;28;20048;-69
2023/07/11 10:48:52;;;;;;;8.13;2.88;;;28.80;89.90;;;;;;5040650;28;20142;-70
2023/07/11 10:51:41;;;;;;;5.53;2.70;;;28.80;89.50;;;;;;5035591;28;20086;-69
2023/07/11 10:54:36;;;;;;;6.47;2.70;;;28.80;88.10;;;;;;5021629;28;20072;-69
2023/07/11 10:57:09;;;;;;;8.82;2.92;;;28.80;88.70;;;;;;5038590;28;20127;-71
2023/07/11 10:59:35;;;;;;;8.82;3.28;;;28.90;89.90;;;;;;5046606;28;20067;-71
2023/07/11 11:02:30;;;;;;;5.60;2.70;;;29.00;87.70;;;;;;5056587;28;20889;-70
2023/07/11 11:05:20;;;;;;;5.40;2.58;;;29.00;87.90;;;;;;5050140;28;20063;-71
2023/07/11 11:07:56;;;;;;;5.10;2.50;;;29.20;87.50;;;;;;5031548;28;20060;-70
2023/07/11 11:10:34;;;;;;;5.97;2.63;;;29.20;85.40;;;;;;5033897;28;21012;-70
2023/07/11 11:13:16;;;;;;;5.55;2.88;;;29.10;85.30;;;;;;5051454;28;20404;-70
2023/07/11 11:16:06;;;;;;;6.97;3.05;;;29.10;85.60;;;;;;5043048;28;20404;-70
2023/07/11 11:19:04;;;;;;;8.52;2.72;;;29.10;87.90;;;;;;5026876;28;20099;-68
2023/07/11 11:21:55;;;;;;;7.20;2.60;;;29.10;87.70;;;;;;5006931;28;20060;-71
2023/07/11 11:24:29;;;;;;;6.80;2.60;;;29.20;88.00;;;;;;5040408;28;20102;-70
2023/07/11 11:27:19;;;;;;;6.07;2.83;;;29.20;85.60;;;;;;5052179;28;21135;-70
2023/07/11 11:30:43;;;;;;;6.88;2.38;;;29.20;85.20;;;;;;5030465;28;20119;-72
2023/07/11 11:33:17;;;;;;;7.10;2.80;;;29.30;84.10;;;;;;4930484;28;20051;-70
2023/07/11 11:35:54;;;;;;;4.00;2.30;;;29.40;84.70;;;;;;4944827;28;20050;-72
2023/07/11 11:38:54;;;;;;;7.40;2.20;;;29.40;83.50;;;;;;4996667;28;20119;-71
2023/07/11 11:41:32;;;;;;;6.20;2.50;;;29.40;82.80;;;;;;5049207;28;20059;-71
2023/07/11 11:43:59;;;;;;;9.20;2.45;;;29.50;82.20;;;;;;5034573;28;20056;-70
2023/07/11 11:46:25;;;;;;;3.55;2.20;;;29.60;82.70;;;;;;5037689;28;20041;-72
2023/07/11 11:48:56;;;;;;;5.03;2.50;;;29.60;83.30;;;;;;5049328;28;20048;-70
2023/07/11 11:51:23;;;;;;;4.35;2.30;;;29.70;82.40;;;;;;5050211;28;20041;-71
2023/07/11 11:54:12;;;;;;;4.75;2.00;;;29.70;82.30;;;;;;5048690;28;22743;-73
2023/07/11 11:56:43;;;;;;;7.32;2.58;;;29.70;81.80;;;;;;5028564;28;20515;-72
2023/07/11 11:59:28;;;;;;;4.53;2.10;;;29.70;83.70;;;;;;5036908;28;20064;-71
2023/07/11 12:01:53;;;;;;;6.38;2.28;;;29.80;83.50;;;;;;5035788;28;20051;-72
2023/07/11 12:04:32;;;;;;;5.33;2.30;;;29.80;84.00;;;;;;5047754;28;20110;-73
2023/07/11 12:07:13;;;;;;;4.18;2.30;;;29.90;83.90;;;;;;5057781;28;20048;-72
2023/07/11 12:09:53;;;;;;;5.35;2.35;;;30.00;83.30;;;;;;5056317;28;20060;-73
2023/07/11 12:12:24;;;;;;;5.30;2.20;;;30.00;82.70;;;;;;5033845;28;20056;-72
2023/07/11 12:14:50;;;;;;;5.97;2.53;;;30.00;81.60;;;;;;5035559;28;20052;-73
2023/07/11 12:17:38;;;;;;;7.10;2.73;;;30.00;80.90;;;;;;5035876;28;20415;-72
2023/07/11 12:20:07;;;;;;;5.60;2.22;;;29.90;80.80;;;;;;5050384;28;20065;-72
2023/07/11 12:22:38;;;;;;;6.90;2.63;;;30.00;82.80;;;;;;5054444;28;20119;-69
2023/07/11 12:25:07;;;;;;;5.75;2.25;;;30.10;84.00;;;;;;5033684;28;20052;-70
2023/07/11 12:27:33;;;;;;;5.40;2.25;;;30.30;83.80;;;;;;5025703;28;20763;-71
2023/07/11 12:30:30;;;;;;;5.00;2.57;;;30.40;83.50;;;;;;5049750;28;20053;-72
2023/07/11 12:33:13;;;;;;;7.47;2.50;;;30.50;81.90;;;;;;5053783;28;20057;-73
2023/07/11 12:35:40;;;;;;;6.45;2.55;;;30.60;82.90;;;;;;5029377;28;20102;-71
2023/07/11 12:38:18;;;;;;;7.45;2.75;;;30.60;80.90;;;;;;5050873;28;20044;-73
2023/07/11 12:41:23;;;;;;;5.07;2.35;;;30.50;79.60;;;;;;5047204;28;20105;-75
2023/07/11 12:43:49;;;;;;;8.10;2.65;;;30.50;79.60;;;;;;5033021;28;20055;-72
2023/07/11 12:46:26;;;;;;;6.93;2.97;;;30.40;79.10;;;;;;5050529;28;20048;-71
2023/07/11 12:48:54;;;;;;;6.97;2.22;;;30.30;79.50;;;;;;5032310;28;20343;-71
2023/07/11 12:51:36;;;;;;;8.57;2.38;;;30.30;78.40;;;;;;5060530;28;20086;-71
2023/07/11 12:54:14;;;;;;;6.90;2.10;;;30.40;77.40;;;;;;5063510;28;20112;-70
2023/07/11 12:56:49;;;;;;;7.10;2.42;;;30.50;75.50;;;;;;5049401;28;20434;-71
2023/07/11 12:59:26;;;;;;;5.18;1.92;;;30.40;74.50;;;;;;5060592;28;20648;-71